createdAt,value
2023-02-22T06:17:49.748Z,3.1
2023-02-22T06:32:50.455Z,2.2
2023-02-22T06:47:50.315Z,2.7
2023-02-22T07:02:52.008Z,3.1
2023-02-22T07:17:52.227Z,3
2023-02-22T07:32:55.884Z,4
2023-02-22T07:47:53.840Z,3
2023-02-22T08:02:53.905Z,2.8
2023-02-22T08:17:54.563Z,2.8
2023-02-22T08:32:56.033Z,2.8
2023-02-22T08:48:00.335Z,3.2
2023-02-22T09:02:56.800Z,3.2
2023-02-22T09:17:56.668Z,5.4
2023-02-22T09:32:58.479Z,2.9
2023-02-22T09:48:22.801Z,6.1
2023-02-22T10:03:00.176Z,8.4
2023-02-22T10:18:02.272Z,8.4
2023-02-22T10:33:03.422Z,11.9
2023-02-22T10:48:02.453Z,6.8
2023-02-22T11:03:01.758Z,6.1
2023-02-22T11:18:08.984Z,3.6
2023-02-22T11:33:05.937Z,3.3
2023-02-22T11:48:06.148Z,5.5
2023-02-22T12:03:21.460Z,8
2023-02-22T12:18:07.879Z,8.5
2023-02-22T12:33:07.084Z,9.1
2023-02-22T12:48:07.073Z,9.6
2023-02-22T13:03:07.087Z,9.6
2023-02-22T13:18:16.132Z,12.3
2023-02-22T13:33:13.532Z,11.7
2023-02-22T13:48:09.937Z,11.9
2023-02-22T14:18:21.115Z,12
2023-02-22T15:00:08.953Z,9.6
2023-02-22T15:03:11.935Z,10.6
2023-02-22T15:18:18.932Z,9.6
2023-02-22T15:33:13.046Z,9.1
2023-02-22T15:48:14.763Z,9.2
2023-02-22T16:03:35.378Z,11.4
2023-02-22T16:18:18.676Z,12.2
2023-02-22T16:33:16.198Z,14.2
2023-02-22T16:48:16.736Z,14.6
2023-02-22T17:03:17.162Z,15.5
2023-02-22T17:18:19.619Z,14.7
2023-02-22T17:33:18.363Z,15.8
2023-02-22T17:48:19.233Z,13.1
2023-02-22T18:03:19.781Z,17.8
